Airfield :
LOGIN :

Register | Disclaimer

   EN    FR    IT 

 










Legend :    VFR   Marginal VFR   IFR   Intensive IFR   Very Intensive IFR
Visi :
Ceiling :
>= 8 km
>= 3000ft
5 to 8 km
1000 to 3000 ft
1500m to 5 km
500 to 1000 ft
800 to 1500m
200 to 500 ft
< 800m
< 200 ft
Symbols :   Thunderstorms  Fog  Heavy snow  Heavy precipitations  Wind > 20 kt
SIGMETs :     Misc.  Thunderstorms  Icing  Turbulence  Mountain Waves  Volcanic Ashes







- Airport Elevation : 121 ft
- IATA code : HUY
- Download approach charts


EGNJ - Humberside

CURRENT METAR :
  • 252150Z VRB03KT 9999 FEW048 03/01 Q1035

EXPIRED METARs :
  • 252120Z VRB01KT 9999 FEW048 04/02 Q1034
  • 252050Z VRB02KT CAVOK 04/01 Q1034
  • 252020Z 08003KT CAVOK 05/02 Q1034
  • 251950Z 04004KT CAVOK 06/02 Q1034

TAF TAF EGNJ
Valid from the 25 at 21:00 until the 26 at 06:00 UTC


252001Z 2521/2606 04010KT 9999 FEW035
BECMG 2521/2524 27005KT
ATIS : +44 1652 682 020
No reported NOTAMs for that airfield.



MET'MAP, your aeronautical weather chart ! - Copyright ORBIFLY December 2007 - Disclaimer

ORBIFLY MET'MAP TEAM :

Programming & Development : Alexandra Zaïnal
Concept & Development : Baudouin d'Aumeries
Co-Development & Prog : Marc-Olivier Méhu
Technical & hardware support : Manuel Goepfert

Contact : metmap@orbifly.com




SOURCES & CREDITS :

   NOAA